createdAt,value
2019-05-14T00:01:22.300Z,102758.00
2019-05-14T00:03:52.060Z,102752.00
2019-05-14T00:06:22.035Z,102758.00
2019-05-14T00:08:52.320Z,102751.00
2019-05-14T00:11:22.137Z,102744.00
2019-05-14T00:13:52.192Z,102751.00
2019-05-14T00:16:24.235Z,102749.00
2019-05-14T00:18:53.483Z,102744.00
2019-05-14T00:21:23.382Z,102749.00
2019-05-14T00:23:53.139Z,102739.00
2019-05-14T00:26:22.909Z,102746.00
2019-05-14T00:28:52.627Z,102750.00
2019-05-14T00:31:22.359Z,102741.00
2019-05-14T00:33:52.135Z,102728.00
2019-05-14T00:36:22.046Z,102742.00
2019-05-14T00:38:51.735Z,102739.00
2019-05-14T00:41:21.673Z,102738.00
2019-05-14T00:43:51.597Z,102738.00
2019-05-14T00:46:21.373Z,102744.00
2019-05-14T00:48:51.599Z,102738.00
2019-05-14T00:51:21.638Z,102739.00
2019-05-14T00:53:51.730Z,102737.00
2019-05-14T00:56:21.735Z,102735.00
2019-05-14T00:58:52.222Z,102736.00
2019-05-14T01:01:22.081Z,102728.00
2019-05-14T01:03:52.238Z,102731.00
2019-05-14T01:06:22.038Z,102727.00
2019-05-14T01:08:52.001Z,102717.00
2019-05-14T01:11:22.237Z,102737.00
2019-05-14T01:13:52.347Z,102723.00
2019-05-14T01:16:22.548Z,102729.00
2019-05-14T01:18:52.228Z,102723.00
2019-05-14T01:21:22.387Z,102720.00
2019-05-14T01:23:52.149Z,102730.00
2019-05-14T01:26:21.972Z,102727.00
2019-05-14T01:28:51.676Z,102733.00
2019-05-14T01:31:21.981Z,102725.00
2019-05-14T01:33:51.903Z,102723.00
2019-05-14T01:36:21.729Z,102719.00
2019-05-14T01:38:51.568Z,102725.00
2019-05-14T01:41:22.371Z,102722.00
2019-05-14T01:43:52.302Z,102733.00
2019-05-14T01:46:22.419Z,102717.00
2019-05-14T01:48:52.258Z,102719.00
2019-05-14T01:51:22.382Z,102718.00
2019-05-14T01:53:52.240Z,102715.00
2019-05-14T01:56:21.907Z,102729.00
2019-05-14T01:58:52.267Z,102729.00
2019-05-14T02:01:22.452Z,102728.00
2019-05-14T02:03:52.254Z,102722.00
2019-05-14T02:06:22.124Z,102723.00
2019-05-14T02:08:51.804Z,102725.00
2019-05-14T02:11:21.584Z,102724.00
2019-05-14T02:13:51.943Z,102725.00
2019-05-14T02:16:22.025Z,102726.00
2019-05-14T02:18:52.343Z,102721.00
2019-05-14T02:21:22.861Z,102720.00
2019-05-14T02:23:52.714Z,102723.00
2019-05-14T02:26:22.486Z,102726.00
2019-05-14T02:28:52.221Z,102721.00
2019-05-14T02:31:21.979Z,102728.00
2019-05-14T02:33:51.727Z,102720.00
2019-05-14T02:36:21.494Z,102717.00
2019-05-14T02:38:51.239Z,102720.00
2019-05-14T02:41:20.993Z,102722.00
2019-05-14T02:43:50.767Z,102717.00
2019-05-14T02:46:21.980Z,102714.00
2019-05-14T02:48:52.107Z,102718.00
2019-05-14T02:51:21.897Z,102719.00
2019-05-14T02:53:51.629Z,102712.00
2019-05-14T02:56:21.277Z,102709.00
2019-05-14T02:58:51.038Z,102701.00
2019-05-14T03:01:21.065Z,102709.00
2019-05-14T03:03:51.439Z,102718.00
2019-05-14T03:06:21.250Z,102721.00
2019-05-14T03:08:51.005Z,102717.00
2019-05-14T03:11:20.818Z,102722.00
2019-05-14T03:13:50.751Z,102724.00
2019-05-14T03:16:30.075Z,102730.00
2019-05-14T03:18:52.209Z,102722.00
2019-05-14T03:21:21.997Z,102627.00
2019-05-14T03:23:52.094Z,102721.00
2019-05-14T03:26:21.890Z,102728.00
2019-05-14T03:28:51.709Z,102734.00
2019-05-14T03:31:22.745Z,102725.00
2019-05-14T03:33:53.474Z,102726.00
2019-05-14T03:36:26.543Z,102728.00
2019-05-14T03:38:54.973Z,102725.00
2019-05-14T03:41:25.049Z,102736.00
2019-05-14T03:43:54.766Z,102728.00
2019-05-14T03:46:43.476Z,102728.00
2019-05-14T03:48:59.842Z,102713.00
2019-05-14T03:51:29.823Z,102727.00
2019-05-14T03:54:06.486Z,102719.00
2019-05-14T03:56:30.985Z,102717.00
2019-05-14T03:59:00.827Z,102715.00
2019-05-14T04:01:30.634Z,102727.00
2019-05-14T04:04:00.698Z,102719.00
2019-05-14T04:06:32.985Z,102717.00
2019-05-14T04:09:05.675Z,102707.00
2019-05-14T04:11:39.839Z,102714.00
2019-05-14T04:14:13.889Z,102726.00
2019-05-14T04:16:59.785Z,102717.00
2019-05-14T04:19:20.190Z,102719.00
2019-05-14T04:21:51.021Z,102719.00
2019-05-14T04:24:23.758Z,102723.00
2019-05-14T04:27:06.898Z,102718.00
2019-05-14T04:29:31.148Z,102720.00
2019-05-14T04:32:03.725Z,102732.00
2019-05-14T04:34:34.735Z,102730.00
2019-05-14T04:37:04.529Z,102732.00
2019-05-14T04:39:34.299Z,102732.00
2019-05-14T04:42:04.087Z,102729.00
2019-05-14T04:44:33.991Z,102734.00
2019-05-14T04:47:21.664Z,102736.00
2019-05-14T04:49:35.485Z,102732.00
2019-05-14T04:52:05.454Z,102738.00
2019-05-14T04:54:35.161Z,102736.00
2019-05-14T04:57:04.939Z,102728.00
2019-05-14T04:59:34.988Z,102735.00
2019-05-14T05:02:05.019Z,102731.00
2019-05-14T05:04:34.793Z,102739.00
2019-05-14T05:07:04.528Z,102736.00
2019-05-14T05:09:34.370Z,102731.00
2019-05-14T05:12:04.150Z,102731.00
2019-05-14T05:14:33.935Z,102726.00
2019-05-14T05:17:03.710Z,102729.00
2019-05-14T05:19:33.446Z,102727.00
2019-05-14T05:22:03.188Z,102726.00
2019-05-14T05:24:32.922Z,102725.00
2019-05-14T05:27:02.691Z,102726.00
2019-05-14T05:29:32.419Z,102717.00
2019-05-14T05:32:02.450Z,102723.00
2019-05-14T05:34:32.230Z,102725.00
2019-05-14T05:37:01.919Z,102718.00
2019-05-14T05:39:31.660Z,102732.00
2019-05-14T05:42:01.345Z,102718.00
2019-05-14T05:44:31.099Z,102723.00
2019-05-14T05:47:01.061Z,102721.00
2019-05-14T05:49:30.828Z,102733.00
2019-05-14T05:52:00.775Z,102723.00
2019-05-14T05:54:30.487Z,102723.00
2019-05-14T05:57:00.578Z,102723.00
2019-05-14T05:59:30.327Z,102727.00
2019-05-14T06:02:00.036Z,102728.00
2019-05-14T06:04:29.868Z,102740.00
2019-05-14T06:07:02.517Z,102726.00
2019-05-14T06:09:31.020Z,102735.00
2019-05-14T06:12:00.768Z,102729.00
2019-05-14T06:14:30.631Z,102734.00
2019-05-14T06:17:00.367Z,102727.00
2019-05-14T06:19:30.212Z,102691.00
2019-05-14T06:22:00.053Z,102721.00
2019-05-14T06:24:29.849Z,102720.00
2019-05-14T06:26:59.605Z,102726.00
2019-05-14T06:29:29.326Z,102717.00
2019-05-14T06:31:59.402Z,102719.00
2019-05-14T06:34:29.339Z,102715.00
2019-05-14T06:36:59.394Z,102724.00
2019-05-14T06:39:29.228Z,102717.00
2019-05-14T06:41:58.973Z,102728.00
2019-05-14T06:44:29.596Z,102724.00
2019-05-14T06:46:59.319Z,102729.00
2019-05-14T06:49:29.276Z,102732.00
2019-05-14T06:52:00.102Z,102735.00
2019-05-14T06:54:29.855Z,102728.00
2019-05-14T06:56:59.876Z,102728.00
2019-05-14T06:59:29.584Z,102722.00
2019-05-14T07:01:59.327Z,102721.00
2019-05-14T07:04:29.168Z,102717.00
2019-05-14T07:06:59.247Z,102727.00
2019-05-14T07:09:29.208Z,102726.00
2019-05-14T07:11:59.136Z,102719.00
2019-05-14T07:14:28.862Z,102725.00
2019-05-14T07:16:59.042Z,102735.00
2019-05-14T07:19:29.632Z,102711.00
2019-05-14T07:21:59.696Z,102726.00
2019-05-14T07:24:29.471Z,102719.00
2019-05-14T07:26:59.245Z,102718.00
2019-05-14T07:29:29.398Z,102717.00
2019-05-14T07:31:59.352Z,102723.00
2019-05-14T07:34:29.335Z,102715.00
2019-05-14T07:36:59.220Z,102722.00
2019-05-14T07:39:29.283Z,102716.00
2019-05-14T07:41:59.443Z,102715.00
2019-05-14T07:44:29.810Z,102719.00
2019-05-14T07:46:59.763Z,102719.00
2019-05-14T07:49:29.481Z,102717.00
2019-05-14T07:51:59.200Z,102718.00
2019-05-14T07:54:29.007Z,102713.00
2019-05-14T07:56:59.155Z,102715.00
2019-05-14T07:59:29.080Z,102714.00
2019-05-14T08:01:58.980Z,102717.00
2019-05-14T08:04:29.130Z,102710.00
2019-05-14T08:06:58.878Z,102714.00
2019-05-14T08:09:28.676Z,102713.00
2019-05-14T08:11:58.877Z,102704.00
2019-05-14T08:14:30.146Z,102708.00
2019-05-14T08:17:00.604Z,102699.00
2019-05-14T08:19:33.942Z,102692.00
2019-05-14T08:22:01.787Z,102692.00
2019-05-14T08:24:31.608Z,102687.00
2019-05-14T08:27:01.374Z,102686.00
2019-05-14T08:29:31.336Z,102691.00
2019-05-14T08:32:01.150Z,102680.00
2019-05-14T08:34:32.366Z,102687.00
2019-05-14T08:37:03.966Z,102675.00
2019-05-14T08:39:34.122Z,102680.00
2019-05-14T08:42:04.474Z,102676.00
2019-05-14T08:44:34.168Z,102674.00
2019-05-14T08:47:03.907Z,102668.00
2019-05-14T08:49:42.626Z,102659.00
2019-05-14T08:52:05.294Z,102672.00
2019-05-14T08:54:35.015Z,102670.00
2019-05-14T08:57:05.124Z,102663.00
2019-05-14T08:59:34.951Z,102655.00
2019-05-14T09:02:06.605Z,102640.00
2019-05-14T09:04:41.916Z,102659.00
2019-05-14T09:07:09.546Z,102651.00
2019-05-14T09:09:39.479Z,102649.00
2019-05-14T09:12:12.625Z,102652.00
2019-05-14T09:14:41.082Z,102652.00
2019-05-14T09:17:14.546Z,102649.00
2019-05-14T09:19:57.727Z,102641.00
2019-05-14T09:22:13.967Z,102633.00
2019-05-14T09:24:43.776Z,102627.00
2019-05-14T09:27:13.549Z,102626.00
2019-05-14T09:29:43.257Z,102622.00
2019-05-14T09:32:13.050Z,102628.00
2019-05-14T09:34:42.818Z,102622.00
2019-05-14T09:37:12.600Z,102628.00
2019-05-14T09:39:42.418Z,102611.00
2019-05-14T09:42:12.250Z,102630.00
2019-05-14T09:44:42.059Z,102623.00
2019-05-14T09:47:11.890Z,102615.00
2019-05-14T09:49:41.685Z,102614.00
2019-05-14T09:52:11.498Z,102610.00
2019-05-14T09:54:43.933Z,102606.00
2019-05-14T09:57:12.787Z,102606.00
2019-05-14T09:59:42.571Z,102607.00
2019-05-14T10:02:12.355Z,102595.00
2019-05-14T10:04:42.151Z,102611.00
2019-05-14T10:07:15.383Z,102599.00
2019-05-14T10:09:43.788Z,102599.00
2019-05-14T10:12:13.568Z,102583.00
2019-05-14T10:14:43.399Z,102588.00
2019-05-14T10:17:13.131Z,102597.00
2019-05-14T10:19:42.867Z,102584.00
2019-05-14T10:22:12.737Z,102592.00
2019-05-14T10:24:42.474Z,102593.00
2019-05-14T10:27:12.329Z,102592.00
2019-05-14T10:29:42.336Z,102592.00
2019-05-14T10:32:12.121Z,102587.00
2019-05-14T10:34:41.916Z,102595.00
2019-05-14T10:37:11.669Z,102596.00
2019-05-14T10:39:41.408Z,102583.00
2019-05-14T10:42:11.162Z,102577.00
2019-05-14T10:44:40.982Z,102583.00
2019-05-14T10:47:10.749Z,102579.00
2019-05-14T10:49:40.544Z,102570.00
2019-05-14T10:52:10.352Z,102582.00
2019-05-14T10:54:53.912Z,102576.00
2019-05-14T10:57:11.549Z,102584.00
2019-05-14T10:59:41.621Z,102586.00
2019-05-14T11:02:12.154Z,102585.00
2019-05-14T11:04:41.981Z,102582.00
2019-05-14T11:07:11.694Z,102573.00
2019-05-14T11:09:41.456Z,102569.00
2019-05-14T11:12:11.234Z,102561.00
2019-05-14T11:14:40.985Z,102568.00
2019-05-14T11:17:11.680Z,102571.00
2019-05-14T11:19:41.915Z,102569.00
2019-05-14T11:22:11.739Z,102567.00
2019-05-14T11:24:41.532Z,102570.00
2019-05-14T11:27:11.423Z,102564.00
2019-05-14T11:29:41.127Z,102566.00
2019-05-14T11:32:11.041Z,102579.00
2019-05-14T11:34:40.773Z,102571.00
2019-05-14T11:37:29.762Z,102571.00
2019-05-14T11:39:59.628Z,102567.00
2019-05-14T11:42:31.463Z,102573.00
2019-05-14T11:45:00.799Z,102566.00
2019-05-14T11:47:30.545Z,102567.00
2019-05-14T11:50:00.342Z,102559.00
2019-05-14T11:52:30.077Z,102557.00
2019-05-14T11:54:59.832Z,102552.00
2019-05-14T11:57:29.735Z,102561.00
2019-05-14T11:59:59.524Z,102556.00
2019-05-14T12:02:29.225Z,102549.00
2019-05-14T12:04:58.941Z,102541.00
2019-05-14T12:07:28.688Z,102534.00
2019-05-14T12:09:58.504Z,102545.00
2019-05-14T12:12:28.913Z,102546.00
2019-05-14T12:14:58.756Z,102543.00
2019-05-14T12:17:29.457Z,102546.00
2019-05-14T12:19:59.558Z,102545.00
2019-05-14T12:22:29.266Z,102553.00
2019-05-14T12:24:59.016Z,102547.00
2019-05-14T12:27:28.888Z,102550.00
2019-05-14T12:29:59.906Z,102543.00
2019-05-14T12:32:29.769Z,102537.00
2019-05-14T12:34:59.575Z,102526.00
2019-05-14T12:37:29.253Z,102539.00
2019-05-14T12:39:59.213Z,102542.00
2019-05-14T12:42:29.547Z,102535.00
2019-05-14T12:44:59.443Z,102537.00
2019-05-14T12:47:29.222Z,102529.00
2019-05-14T12:49:59.011Z,102520.00
2019-05-14T12:52:29.694Z,102529.00
2019-05-14T12:54:59.921Z,102520.00
2019-05-14T12:57:30.147Z,102520.00
2019-05-14T13:00:00.077Z,102517.00
2019-05-14T13:02:29.831Z,102504.00
2019-05-14T13:05:00.189Z,102503.00
2019-05-14T13:07:30.102Z,102502.00
2019-05-14T13:09:59.895Z,102502.00
2019-05-14T13:12:29.866Z,102501.00
2019-05-14T13:14:59.732Z,102514.00
2019-05-14T13:17:29.617Z,102512.00
2019-05-14T13:19:59.440Z,102502.00
2019-05-14T13:22:41.494Z,102497.00
2019-05-14T13:25:00.604Z,102493.00
2019-05-14T13:27:30.314Z,102502.00
2019-05-14T13:30:00.131Z,102490.00
2019-05-14T13:32:29.944Z,102487.00
2019-05-14T13:35:00.105Z,102489.00
2019-05-14T13:37:30.005Z,102485.00
2019-05-14T13:39:59.775Z,102483.00
2019-05-14T13:42:29.747Z,102483.00
2019-05-14T13:44:59.691Z,102455.00
2019-05-14T13:47:29.401Z,102473.00
2019-05-14T13:49:59.360Z,102486.00
2019-05-14T13:52:29.413Z,102487.00
2019-05-14T13:54:59.272Z,102490.00
2019-05-14T13:57:29.257Z,102481.00
2019-05-14T13:59:59.114Z,102465.00
2019-05-14T14:02:31.345Z,102469.00
2019-05-14T14:05:00.418Z,102473.00
2019-05-14T14:07:30.124Z,102480.00
2019-05-14T14:09:59.865Z,102461.00
2019-05-14T14:12:32.342Z,102458.00
2019-05-14T14:15:20.546Z,102464.00
2019-05-14T14:17:50.036Z,102443.00
2019-05-14T14:20:19.916Z,102468.00
2019-05-14T14:22:49.742Z,102465.00
2019-05-14T14:25:19.584Z,102457.00
2019-05-14T14:27:49.327Z,102443.00
2019-05-14T14:30:19.727Z,102433.00
2019-05-14T14:33:08.716Z,102429.00
2019-05-14T14:35:38.881Z,102444.00
2019-05-14T14:38:08.925Z,102445.00
2019-05-14T14:40:39.575Z,102454.00
2019-05-14T14:43:09.719Z,102442.00
2019-05-14T14:45:45.505Z,102430.00
2019-05-14T14:48:12.695Z,102424.00
2019-05-14T14:50:42.437Z,102434.00
2019-05-14T14:53:12.212Z,102441.00
2019-05-14T14:55:42.052Z,102443.00
2019-05-14T14:58:11.991Z,102439.00
2019-05-14T15:00:41.948Z,102438.00
2019-05-14T15:03:11.654Z,102437.00
2019-05-14T15:05:41.450Z,102445.00
2019-05-14T15:08:11.216Z,102436.00
2019-05-14T15:10:40.980Z,102439.00
2019-05-14T15:13:10.704Z,102444.00
2019-05-14T15:15:40.479Z,102440.00
2019-05-14T15:18:13.891Z,102434.00
2019-05-14T15:20:41.913Z,102424.00
2019-05-14T15:23:11.670Z,102430.00
2019-05-14T15:25:41.421Z,102419.00
2019-05-14T15:28:11.301Z,102422.00
2019-05-14T15:30:41.023Z,102422.00
2019-05-14T15:33:10.697Z,102421.00
2019-05-14T15:35:40.573Z,102423.00
2019-05-14T15:38:11.478Z,102422.00
2019-05-14T15:40:41.392Z,102421.00
2019-05-14T15:43:11.268Z,102413.00
2019-05-14T15:45:41.002Z,102412.00
2019-05-14T15:48:10.745Z,102410.00
2019-05-14T15:50:40.521Z,102406.00
2019-05-14T15:53:11.257Z,102413.00
2019-05-14T15:55:41.162Z,102417.00
2019-05-14T15:58:10.893Z,102406.00
2019-05-14T16:00:40.591Z,102405.00
2019-05-14T16:03:10.324Z,102406.00
2019-05-14T16:05:40.224Z,102396.00
2019-05-14T16:08:09.940Z,102408.00
2019-05-14T16:10:40.089Z,102402.00
2019-05-14T16:13:09.762Z,102399.00
2019-05-14T16:15:39.420Z,102401.00
2019-05-14T16:18:18.375Z,102404.00
2019-05-14T16:20:40.849Z,102406.00
2019-05-14T16:23:11.150Z,102408.00
2019-05-14T16:25:41.070Z,102405.00
2019-05-14T16:28:10.748Z,102406.00
2019-05-14T16:30:40.498Z,102396.00
2019-05-14T16:33:10.559Z,102399.00
2019-05-14T16:35:40.314Z,102386.00
2019-05-14T16:38:10.078Z,102389.00
2019-05-14T16:40:39.818Z,102381.00
2019-05-14T16:43:09.557Z,102399.00
2019-05-14T16:45:39.802Z,102391.00
2019-05-14T16:48:10.797Z,102386.00
2019-05-14T16:50:40.965Z,102385.00
2019-05-14T16:53:11.604Z,102389.00
2019-05-14T16:55:41.916Z,102384.00
2019-05-14T16:58:11.668Z,102378.00
2019-05-14T17:00:41.406Z,102388.00
2019-05-14T17:03:11.195Z,102391.00
2019-05-14T17:05:40.908Z,102377.00
2019-05-14T17:08:10.595Z,102390.00
2019-05-14T17:10:40.338Z,102388.00
2019-05-14T17:13:10.415Z,102385.00
2019-05-14T17:15:40.167Z,102374.00
2019-05-14T17:18:10.667Z,102369.00
2019-05-14T17:20:40.378Z,102386.00
2019-05-14T17:23:10.110Z,102381.00
2019-05-14T17:25:39.897Z,102377.00
2019-05-14T17:28:09.605Z,102389.00
2019-05-14T17:30:39.481Z,102388.00
2019-05-14T17:33:09.728Z,102383.00
2019-05-14T17:35:39.542Z,102384.00
2019-05-14T17:38:09.395Z,102383.00
2019-05-14T17:40:39.790Z,102374.00
2019-05-14T17:43:09.701Z,102387.00
2019-05-14T17:45:39.829Z,102382.00
2019-05-14T17:48:09.973Z,102384.00
2019-05-14T17:50:39.736Z,102383.00
2019-05-14T17:53:09.843Z,102378.00
2019-05-14T17:55:47.034Z,102319.00
2019-05-14T17:58:13.141Z,102360.00
2019-05-14T18:00:43.148Z,102384.00
2019-05-14T18:03:12.901Z,102368.00
2019-05-14T18:05:42.620Z,102373.00
2019-05-14T18:08:12.396Z,102384.00
2019-05-14T18:10:42.165Z,102386.00
2019-05-14T18:13:11.949Z,102378.00
2019-05-14T18:15:42.182Z,102386.00
2019-05-14T18:18:12.257Z,102381.00
2019-05-14T18:20:42.321Z,102387.00
2019-05-14T18:23:12.155Z,102377.00
2019-05-14T18:25:42.178Z,102360.00
2019-05-14T18:28:11.924Z,102367.00
2019-05-14T18:30:41.637Z,102383.00
2019-05-14T18:33:11.343Z,102374.00
2019-05-14T18:35:45.023Z,102377.00
2019-05-14T18:38:12.594Z,102374.00
2019-05-14T18:40:42.319Z,102366.00
2019-05-14T18:43:12.048Z,102365.00
2019-05-14T18:45:41.894Z,102368.00
2019-05-14T18:48:11.690Z,102364.00
2019-05-14T18:50:41.764Z,102376.00
2019-05-14T18:53:13.151Z,102364.00
2019-05-14T18:55:43.039Z,102367.00
2019-05-14T18:58:12.757Z,102376.00
2019-05-14T19:00:42.613Z,102368.00
2019-05-14T19:03:12.662Z,102373.00
2019-05-14T19:05:42.401Z,102376.00
2019-05-14T19:08:12.256Z,102367.00
2019-05-14T19:10:41.993Z,102385.00
2019-05-14T19:13:11.720Z,102385.00
2019-05-14T19:15:41.518Z,102385.00
2019-05-14T19:18:11.239Z,102378.00
2019-05-14T19:20:40.903Z,102382.00
2019-05-14T19:23:10.683Z,102384.00
2019-05-14T19:25:40.482Z,102369.00
2019-05-14T19:28:10.248Z,102371.00
2019-05-14T19:30:40.061Z,102375.00
2019-05-14T19:33:09.766Z,102374.00
2019-05-14T19:35:39.846Z,102366.00
2019-05-14T19:38:09.601Z,102361.00
2019-05-14T19:40:39.422Z,102352.00
2019-05-14T19:43:09.494Z,102358.00
2019-05-14T19:45:39.422Z,102369.00
2019-05-14T19:48:09.190Z,102354.00
2019-05-14T19:50:43.594Z,102359.00
2019-05-14T19:53:13.597Z,102354.00
2019-05-14T19:55:43.312Z,102359.00
2019-05-14T19:58:13.264Z,102356.00
2019-05-14T20:00:43.257Z,102351.00
2019-05-14T20:03:13.016Z,102357.00
2019-05-14T20:05:42.797Z,102350.00
2019-05-14T20:08:12.617Z,102348.00
2019-05-14T20:10:42.390Z,102355.00
2019-05-14T20:13:12.234Z,102344.00
2019-05-14T20:15:42.126Z,102348.00
2019-05-14T20:18:11.924Z,102352.00
2019-05-14T20:20:41.763Z,102341.00
2019-05-14T20:23:11.516Z,102352.00
2019-05-14T20:25:41.415Z,102343.00
2019-05-14T20:28:11.174Z,102340.00
2019-05-14T20:30:40.951Z,102340.00
2019-05-14T20:33:10.999Z,102346.00
2019-05-14T20:35:40.780Z,102336.00
2019-05-14T20:38:10.515Z,102341.00
2019-05-14T20:40:40.352Z,102338.00
2019-05-14T20:43:10.538Z,102342.00
2019-05-14T20:45:40.395Z,102339.00
2019-05-14T20:48:10.180Z,102336.00
2019-05-14T20:50:40.247Z,102329.00
2019-05-14T20:53:09.950Z,102334.00
2019-05-14T20:55:39.725Z,102332.00
2019-05-14T20:58:09.466Z,102332.00
2019-05-14T21:00:41.565Z,102320.00
2019-05-14T21:03:10.844Z,102328.00
2019-05-14T21:05:42.347Z,102329.00
2019-05-14T21:08:13.559Z,102335.00
2019-05-14T21:10:43.847Z,102324.00
2019-05-14T21:13:13.601Z,102328.00
2019-05-14T21:15:43.419Z,102325.00
2019-05-14T21:18:13.285Z,102318.00
2019-05-14T21:20:42.999Z,102319.00
2019-05-14T21:23:12.749Z,102310.00
2019-05-14T21:25:42.562Z,102333.00
2019-05-14T21:28:12.395Z,102315.00
2019-05-14T21:30:42.323Z,102313.00
2019-05-14T21:33:12.146Z,102323.00
2019-05-14T21:35:41.933Z,102318.00
2019-05-14T21:38:12.013Z,102248.00
2019-05-14T21:40:41.794Z,102315.00
2019-05-14T21:43:11.875Z,102308.00
2019-05-14T21:45:41.990Z,102318.00
2019-05-14T21:48:11.803Z,102313.00
2019-05-14T21:50:41.576Z,102297.00
2019-05-14T21:53:11.862Z,102301.00
2019-05-14T21:55:41.646Z,102304.00
2019-05-14T21:58:11.912Z,102300.00
2019-05-14T22:00:48.640Z,102305.00
2019-05-14T22:03:20.788Z,102299.00
2019-05-14T22:05:51.714Z,102291.00
2019-05-14T22:08:21.652Z,102289.00
2019-05-14T22:10:51.441Z,102301.00
2019-05-14T22:13:21.340Z,102288.00
2019-05-14T22:15:51.069Z,102278.00
2019-05-14T22:18:21.038Z,102280.00
2019-05-14T22:20:50.741Z,102277.00
2019-05-14T22:23:21.211Z,102278.00
2019-05-14T22:25:51.117Z,102269.00
2019-05-14T22:28:20.943Z,102267.00
2019-05-14T22:30:50.755Z,102269.00
2019-05-14T22:33:20.517Z,102268.00
2019-05-14T22:35:50.295Z,102264.00
2019-05-14T22:38:20.416Z,102269.00
2019-05-14T22:40:50.253Z,102274.00
2019-05-14T22:43:20.031Z,102261.00
2019-05-14T22:45:49.826Z,102261.00
2019-05-14T22:48:19.613Z,102260.00
2019-05-14T22:50:49.361Z,102261.00
2019-05-14T22:53:19.113Z,102265.00
2019-05-14T22:55:49.213Z,102265.00
2019-05-14T22:58:25.595Z,102265.00
2019-05-14T23:01:02.280Z,102264.00
2019-05-14T23:03:22.083Z,102263.00
2019-05-14T23:05:52.037Z,102259.00
2019-05-14T23:08:21.834Z,102254.00
2019-05-14T23:10:51.981Z,102260.00
2019-05-14T23:13:21.740Z,102250.00
2019-05-14T23:15:51.556Z,102249.00
2019-05-14T23:18:21.386Z,102244.00
2019-05-14T23:20:51.158Z,102242.00
2019-05-14T23:23:20.882Z,102239.00
2019-05-14T23:25:50.676Z,102237.00
2019-05-14T23:28:20.496Z,102235.00
2019-05-14T23:31:09.507Z,102234.00
2019-05-14T23:33:39.314Z,102224.00
2019-05-14T23:36:09.580Z,102220.00
2019-05-14T23:38:40.423Z,102220.00
2019-05-14T23:41:10.225Z,102218.00
2019-05-14T23:43:39.927Z,102217.00
2019-05-14T23:46:09.761Z,102222.00
2019-05-14T23:48:39.588Z,102222.00
2019-05-14T23:51:09.413Z,102219.00
2019-05-14T23:53:39.500Z,102225.00
2019-05-14T23:56:09.287Z,102230.00
2019-05-14T23:58:39.025Z,102217.00
